Time;durP1;ratioP1;P1;durP2;ratioP2;P2;SDS_P1;SDS_P2;PMS_P1;PMS_P2;Temp;Humidity;BMP_temperature;BMP_pressure;BME280_temperature;BME280_humidity;BME280_pressure;Samples;Min_cycle;Max_cycle;Signal;HPM_P1;HPM_P2
2023/10/29 00:02:21;;;;;;;29.80;10.95;;;;;;;;;;6259563;28;20416;-62
2023/10/29 00:05:22;;;;;;;23.42;10.80;;;;;;;;;;6262962;28;20064;-62
2023/10/29 00:08:22;;;;;;;25.98;12.20;;;;;;;;;;6269251;28;20467;-62
2023/10/29 00:11:23;;;;;;;25.42;11.82;;;;;;;;;;6261651;28;20053;-62
2023/10/29 00:14:24;;;;;;;23.10;9.38;;;;;;;;;;6262364;28;20056;-62
2023/10/29 00:17:25;;;;;;;24.73;8.85;;;;;;;;;;6262899;28;20108;-62
2023/10/29 00:20:28;;;;;;;20.98;9.07;;;;;;;;;;6266918;28;20167;-62
2023/10/29 00:23:28;;;;;;;18.02;8.00;;;;;;;;;;6264146;28;20594;-62
2023/10/29 00:26:29;;;;;;;18.33;8.35;;;;;;;;;;6261081;28;20448;-62
2023/10/29 00:29:30;;;;;;;25.17;9.43;;;;;;;;;;6264344;28;20098;-63
2023/10/29 00:32:30;;;;;;;20.35;9.20;;;;;;;;;;6262902;28;20041;-63
2023/10/29 00:35:31;;;;;;;21.30;9.77;;;;;;;;;;6265884;28;20045;-62
2023/10/29 00:38:32;;;;;;;26.50;10.43;;;;;;;;;;6268201;28;20037;-61
2023/10/29 00:41:32;;;;;;;26.23;11.88;;;;;;;;;;6268242;28;20053;-62
2023/10/29 00:44:33;;;;;;;20.42;9.07;;;;;;;;;;6267702;28;20346;-61
2023/10/29 00:47:33;;;;;;;26.25;10.80;;;;;;;;;;6266551;28;20048;-62
2023/10/29 00:50:34;;;;;;;28.55;11.38;;;;;;;;;;6269669;28;20044;-61
2023/10/29 00:53:35;;;;;;;29.00;13.07;;;;;;;;;;6268709;28;20557;-62
2023/10/29 00:56:36;;;;;;;33.75;15.98;;;;;;;;;;6265499;28;20048;-60
2023/10/29 00:59:37;;;;;;;31.73;15.15;;;;;;;;;;6267108;28;20049;-63
2023/10/29 01:02:38;;;;;;;40.85;15.77;;;;;;;;;;6269010;28;20524;-63
2023/10/29 01:05:38;;;;;;;30.98;16.35;;;;;;;;;;6266516;28;20313;-63
2023/10/29 01:08:40;;;;;;;33.25;16.02;;;;;;;;;;6266074;28;20049;-62
2023/10/29 01:11:40;;;;;;;39.80;18.80;;;;;;;;;;6264706;28;20041;-62
2023/10/29 01:14:41;;;;;;;47.38;23.40;;;;;;;;;;6269611;28;20045;-62
2023/10/29 01:17:42;;;;;;;43.85;21.65;;;;;;;;;;6267424;28;20041;-63
2023/10/29 01:20:43;;;;;;;39.60;19.52;;;;;;;;;;6268615;28;20072;-62
2023/10/29 01:23:43;;;;;;;35.10;15.88;;;;;;;;;;6266966;28;20060;-62
2023/10/29 01:26:44;;;;;;;30.48;14.63;;;;;;;;;;6267862;28;20131;-61
2023/10/29 01:29:45;;;;;;;31.35;13.35;;;;;;;;;;6268273;28;20037;-61
2023/10/29 01:32:46;;;;;;;34.00;14.43;;;;;;;;;;6268479;28;20049;-62
2023/10/29 01:35:46;;;;;;;29.55;13.43;;;;;;;;;;6263356;28;20051;-62
2023/10/29 01:38:47;;;;;;;32.40;14.70;;;;;;;;;;6266138;28;20041;-61
2023/10/29 01:41:47;;;;;;;28.02;13.77;;;;;;;;;;6267050;28;20077;-61
2023/10/29 01:44:48;;;;;;;39.22;19.83;;;;;;;;;;6267451;28;20103;-62
2023/10/29 01:47:49;;;;;;;38.53;17.25;;;;;;;;;;6266618;28;20045;-62
2023/10/29 01:50:50;;;;;;;37.75;20.20;;;;;;;;;;6266276;28;20074;-62
2023/10/29 01:53:50;;;;;;;41.45;22.15;;;;;;;;;;6268029;28;20045;-61
2023/10/29 01:56:51;;;;;;;49.28;24.75;;;;;;;;;;6266442;28;20081;-62
2023/10/29 01:59:51;;;;;;;47.47;22.52;;;;;;;;;;6267976;28;20480;-60
2023/10/29 02:02:52;;;;;;;54.75;26.05;;;;;;;;;;6267555;28;20049;-63
2023/10/29 02:05:54;;;;;;;68.53;33.42;;;;;;;;;;6265956;28;20061;-62
2023/10/29 02:08:55;;;;;;;;;;;;;;;;;;6264126;28;20053;-61
2023/10/29 02:11:55;;;;;;;179.95;55.67;;;;;;;;;;6265723;28;19931;-62
2023/10/29 02:14:56;;;;;;;199.07;53.67;;;;;;;;;;6265659;28;20076;-62
2023/10/29 02:17:57;;;;;;;124.80;40.83;;;;;;;;;;6265530;28;20494;-62
2023/10/29 02:20:59;;;;;;;85.10;30.08;;;;;;;;;;6266945;28;20037;-62
2023/10/29 02:24:01;;;;;;;62.03;23.50;;;;;;;;;;6266548;28;20052;-63
2023/10/29 02:27:01;;;;;;;;;;;;;;;;;;6265825;28;20298;-62
2023/10/29 02:30:02;;;;;;;49.13;25.98;;;;;;;;;;6266637;28;20393;-62
2023/10/29 02:33:03;;;;;;;39.05;18.90;;;;;;;;;;6266556;28;20055;-63
2023/10/29 02:36:03;;;;;;;39.80;18.25;;;;;;;;;;6263701;28;20057;-62
2023/10/29 02:39:04;;;;;;;40.38;17.85;;;;;;;;;;6266763;28;20132;-62
2023/10/29 02:42:05;;;;;;;32.67;18.35;;;;;;;;;;6266896;28;20556;-62
2023/10/29 02:45:06;;;;;;;33.00;17.30;;;;;;;;;;6266186;28;20100;-62
2023/10/29 02:48:06;;;;;;;30.23;17.35;;;;;;;;;;6266235;28;20041;-62
2023/10/29 02:51:13;;;;;;;30.02;15.85;;;;;;;;;;6264928;28;20059;-63
2023/10/29 02:54:14;;;;;;;33.38;16.42;;;;;;;;;;6265093;28;20067;-62
2023/10/29 02:57:14;;;;;;;34.05;17.95;;;;;;;;;;6264696;28;20048;-62
2023/10/29 03:00:15;;;;;;;31.88;15.73;;;;;;;;;;6265024;28;20094;-62
2023/10/29 03:03:16;;;;;;;31.13;14.38;;;;;;;;;;6266254;28;20443;-62
2023/10/29 03:06:17;;;;;;;26.75;13.25;;;;;;;;;;6264653;28;20045;-63
2023/10/29 03:09:18;;;;;;;25.73;12.10;;;;;;;;;;6263672;28;20128;-62
2023/10/29 03:12:18;;;;;;;24.67;11.38;;;;;;;;;;6266455;28;20045;-62
2023/10/29 03:15:19;;;;;;;22.33;10.38;;;;;;;;;;6265106;28;20064;-63
2023/10/29 03:18:20;;;;;;;16.90;9.40;;;;;;;;;;6265248;28;20045;-62
2023/10/29 03:21:21;;;;;;;16.88;8.48;;;;;;;;;;6265964;28;20238;-63
2023/10/29 03:24:21;;;;;;;22.58;8.18;;;;;;;;;;6266005;28;20048;-62
2023/10/29 03:27:22;;;;;;;17.98;8.52;;;;;;;;;;6265247;28;20119;-63
2023/10/29 03:30:22;;;;;;;21.23;8.32;;;;;;;;;;6266102;28;20435;-62
2023/10/29 03:33:23;;;;;;;19.80;8.55;;;;;;;;;;6258975;28;20072;-62
2023/10/29 03:36:24;;;;;;;16.48;9.38;;;;;;;;;;6255382;28;20068;-62
2023/10/29 03:39:24;;;;;;;19.58;9.10;;;;;;;;;;6257819;28;20130;-62
2023/10/29 03:42:25;;;;;;;22.33;15.25;;;;;;;;;;6260005;28;20403;-61
2023/10/29 03:45:25;;;;;;;17.17;9.32;;;;;;;;;;6258695;28;20069;-62
2023/10/29 03:48:26;;;;;;;17.70;8.80;;;;;;;;;;6256587;28;20515;-63
2023/10/29 03:51:28;;;;;;;18.52;9.35;;;;;;;;;;6258703;28;20045;-62
2023/10/29 03:54:28;;;;;;;20.20;11.10;;;;;;;;;;6257172;28;20408;-63
2023/10/29 03:57:29;;;;;;;22.17;10.95;;;;;;;;;;6261452;28;20037;-62
2023/10/29 04:00:30;;;;;;;20.30;11.35;;;;;;;;;;6256595;28;20072;-61
2023/10/29 04:03:31;;;;;;;26.52;13.23;;;;;;;;;;6259376;28;20140;-63
2023/10/29 04:06:31;;;;;;;31.48;16.33;;;;;;;;;;6257654;28;20056;-63
2023/10/29 04:09:32;;;;;;;29.27;14.57;;;;;;;;;;6244658;28;20378;-62
2023/10/29 04:12:32;;;;;;;27.27;16.40;;;;;;;;;;6258200;28;20045;-62
2023/10/29 04:15:35;;;;;;;33.70;16.52;;;;;;;;;;6253977;28;20057;-63
2023/10/29 04:18:35;;;;;;;33.17;17.90;;;;;;;;;;6258591;28;20510;-62
2023/10/29 04:21:36;;;;;;;27.45;13.77;;;;;;;;;;6260284;28;20051;-62
2023/10/29 04:24:37;;;;;;;28.65;14.82;;;;;;;;;;6259000;28;20547;-62
2023/10/29 04:27:37;;;;;;;32.15;15.30;;;;;;;;;;6272677;28;20045;-61
2023/10/29 04:30:38;;;;;;;36.60;17.27;;;;;;;;;;6261494;28;20297;-63
2023/10/29 04:33:38;;;;;;;32.78;14.80;;;;;;;;;;6260658;28;20435;-63
2023/10/29 04:36:41;;;;;;;29.30;14.00;;;;;;;;;;6259507;28;20099;-62
2023/10/29 04:39:45;;;;;;;30.08;14.38;;;;;;;;;;6258883;28;20407;-62
2023/10/29 04:42:46;;;;;;;32.38;15.05;;;;;;;;;;6260870;28;20052;-62
2023/10/29 04:45:47;;;;;;;31.88;14.95;;;;;;;;;;6257409;28;20517;-63
2023/10/29 04:48:48;;;;;;;39.30;17.13;;;;;;;;;;6259220;28;20130;-62
2023/10/29 04:51:48;;;;;;;33.55;15.38;;;;;;;;;;6258034;28;20454;-63
2023/10/29 04:54:49;;;;;;;29.92;14.40;;;;;;;;;;6256334;28;20512;-63
2023/10/29 04:57:50;;;;;;;30.27;14.68;;;;;;;;;;6258035;28;20044;-62
2023/10/29 05:00:50;;;;;;;32.38;15.18;;;;;;;;;;6262782;28;20037;-62
2023/10/29 05:03:51;;;;;;;30.48;15.73;;;;;;;;;;6267045;28;20053;-62
2023/10/29 05:06:52;;;;;;;30.80;14.73;;;;;;;;;;6253613;28;20072;-62
2023/10/29 05:09:53;;;;;;;35.03;19.73;;;;;;;;;;6257838;28;20383;-62
2023/10/29 05:12:54;;;;;;;30.27;15.88;;;;;;;;;;6255081;28;20045;-61
2023/10/29 05:15:54;;;;;;;29.17;14.90;;;;;;;;;;6255968;28;20045;-62
2023/10/29 05:18:55;;;;;;;30.17;15.25;;;;;;;;;;6243697;28;20075;-62
2023/10/29 05:21:56;;;;;;;26.13;12.90;;;;;;;;;;6239265;28;20061;-62
2023/10/29 05:24:56;;;;;;;28.40;15.30;;;;;;;;;;6259252;28;20056;-62
2023/10/29 05:27:57;;;;;;;25.42;13.75;;;;;;;;;;6248404;28;20092;-62
2023/10/29 05:30:57;;;;;;;28.33;14.23;;;;;;;;;;6261357;28;20056;-62
2023/10/29 05:33:58;;;;;;;27.98;14.07;;;;;;;;;;6246993;28;20077;-62
2023/10/29 05:36:59;;;;;;;25.17;13.55;;;;;;;;;;6245174;28;20424;-61
2023/10/29 05:40:00;;;;;;;28.00;14.35;;;;;;;;;;6245161;28;20073;-62
2023/10/29 05:43:00;;;;;;;28.63;16.15;;;;;;;;;;6245750;28;20041;-62
2023/10/29 05:46:01;;;;;;;38.90;19.02;;;;;;;;;;6244721;28;20104;-64
2023/10/29 05:49:02;;;;;;;34.53;17.85;;;;;;;;;;6246264;28;20045;-62
2023/10/29 05:52:02;;;;;;;31.33;16.45;;;;;;;;;;6246512;28;20069;-62
2023/10/29 05:55:03;;;;;;;29.00;15.82;;;;;;;;;;6243590;28;20049;-63
2023/10/29 05:58:04;;;;;;;24.27;14.97;;;;;;;;;;6243970;28;20048;-62
2023/10/29 06:01:05;;;;;;;23.83;13.90;;;;;;;;;;6246946;28;20103;-62
2023/10/29 06:04:06;;;;;;;30.88;14.52;;;;;;;;;;6244911;28;20314;-63
2023/10/29 06:07:08;;;;;;;26.13;13.88;;;;;;;;;;6246870;28;20049;-62
2023/10/29 06:10:10;;;;;;;25.13;13.57;;;;;;;;;;6257305;28;20086;-62
2023/10/29 06:13:11;;;;;;;;;;;;;;;;;;6259952;28;20119;-63
2023/10/29 06:16:11;;;;;;;29.48;16.15;;;;;;;;;;6248247;28;20047;-63
2023/10/29 06:19:12;;;;;;;33.40;17.30;;;;;;;;;;6249599;28;20054;-63
2023/10/29 06:22:13;;;;;;;44.40;22.13;;;;;;;;;;6244628;28;20154;-62
2023/10/29 06:25:17;;;;;;;35.40;19.50;;;;;;;;;;6244297;28;20053;-61
2023/10/29 06:28:17;;;;;;;34.40;18.73;;;;;;;;;;6244918;28;20469;-62
2023/10/29 06:31:18;;;;;;;37.80;20.60;;;;;;;;;;6249643;28;20090;-63
2023/10/29 06:34:19;;;;;;;33.22;18.95;;;;;;;;;;6243594;28;20095;-62
2023/10/29 06:37:19;;;;;;;47.15;24.30;;;;;;;;;;6242485;28;20049;-64
2023/10/29 06:40:21;;;;;;;46.35;24.95;;;;;;;;;;6245117;28;20078;-62
2023/10/29 06:43:21;;;;;;;42.23;20.97;;;;;;;;;;6243654;28;20044;-64
2023/10/29 06:46:22;;;;;;;50.28;24.38;;;;;;;;;;6240912;28;20140;-63
2023/10/29 06:49:23;;;;;;;45.05;23.85;;;;;;;;;;6245518;28;20050;-61
2023/10/29 06:52:23;;;;;;;52.40;27.23;;;;;;;;;;6244683;28;20041;-63
2023/10/29 06:55:24;;;;;;;49.95;29.15;;;;;;;;;;6257867;28;20084;-63
2023/10/29 06:58:24;;;;;;;92.70;37.80;;;;;;;;;;6267062;28;20094;-62
2023/10/29 07:01:25;;;;;;;96.40;37.63;;;;;;;;;;6268172;28;20106;-62
2023/10/29 07:04:26;;;;;;;162.73;50.10;;;;;;;;;;6266215;28;20086;-62
2023/10/29 07:07:28;;;;;;;136.20;45.17;;;;;;;;;;6260975;28;20052;-62
2023/10/29 07:10:29;;;;;;;90.50;35.42;;;;;;;;;;6255462;28;20153;-61
2023/10/29 07:13:31;;;;;;;86.47;31.98;;;;;;;;;;6256235;28;20045;-62
2023/10/29 07:16:32;;;;;;;82.13;31.17;;;;;;;;;;6266844;28;20044;-61
2023/10/29 07:19:33;;;;;;;89.43;36.77;;;;;;;;;;6268109;28;20106;-60
2023/10/29 07:22:33;;;;;;;125.22;45.60;;;;;;;;;;6266648;28;20048;-60
2023/10/29 07:25:34;;;;;;;142.20;48.78;;;;;;;;;;6266370;28;20098;-62
2023/10/29 07:28:35;;;;;;;124.85;49.33;;;;;;;;;;6265898;28;20049;-61
2023/10/29 07:31:35;;;;;;;125.75;49.75;;;;;;;;;;6267070;28;20095;-62
2023/10/29 07:34:36;;;;;;;118.57;50.92;;;;;;;;;;6260544;28;20186;-62
2023/10/29 07:37:37;;;;;;;109.55;47.83;;;;;;;;;;6265234;28;20540;-62
2023/10/29 07:40:38;;;;;;;103.03;44.53;;;;;;;;;;6267390;28;20136;-62
2023/10/29 07:43:39;;;;;;;88.28;41.70;;;;;;;;;;6266373;28;20801;-62
2023/10/29 07:46:39;;;;;;;83.55;35.10;;;;;;;;;;6264728;28;20139;-62
2023/10/29 07:49:41;;;;;;;58.78;25.92;;;;;;;;;;6267187;28;20033;-62
2023/10/29 07:52:42;;;;;;;39.80;17.02;;;;;;;;;;6257493;28;20466;-62
2023/10/29 07:55:42;;;;;;;26.30;12.60;;;;;;;;;;6259642;28;20044;-62
2023/10/29 07:58:44;;;;;;;28.60;13.32;;;;;;;;;;6264401;28;20447;-62
2023/10/29 08:01:45;;;;;;;20.52;10.07;;;;;;;;;;6264621;28;20053;-63
2023/10/29 08:04:46;;;;;;;23.83;11.05;;;;;;;;;;6214190;28;20078;-61
2023/10/29 08:07:47;;;;;;;29.00;12.10;;;;;;;;;;6216766;28;20082;-62
2023/10/29 08:10:48;;;;;;;21.88;10.25;;;;;;;;;;6217324;28;20103;-63
2023/10/29 08:13:50;;;;;;;24.48;10.27;;;;;;;;;;6217353;28;20046;-63
2023/10/29 08:16:50;;;;;;;;;;;;;;;;;;6216963;28;20583;-62
2023/10/29 08:19:52;;;;;;;17.90;8.68;;;;;;;;;;6217283;28;19921;-61
2023/10/29 08:22:52;;;;;;;20.10;8.30;;;;;;;;;;6216675;28;20084;-61
2023/10/29 08:25:54;;;;;;;25.05;10.13;;;;;;;;;;6215535;28;20353;-61
2023/10/29 08:28:55;;;;;;;23.70;10.45;;;;;;;;;;6214466;28;20057;-61
2023/10/29 08:31:55;;;;;;;23.10;11.23;;;;;;;;;;6215688;28;20050;-62
2023/10/29 08:34:56;;;;;;;22.63;11.02;;;;;;;;;;6215028;28;20056;-63
2023/10/29 08:37:57;;;;;;;23.92;10.02;;;;;;;;;;6213221;28;20057;-61
2023/10/29 08:40:58;;;;;;;22.55;9.82;;;;;;;;;;6216832;28;20062;-60
2023/10/29 08:43:59;;;;;;;20.25;8.82;;;;;;;;;;6216524;28;20049;-62
2023/10/29 08:46:59;;;;;;;21.58;9.98;;;;;;;;;;6215917;28;20081;-62
2023/10/29 08:50:00;;;;;;;20.40;10.95;;;;;;;;;;6217990;28;20054;-61
2023/10/29 08:53:01;;;;;;;22.75;10.23;;;;;;;;;;6217301;28;20104;-63
2023/10/29 08:56:03;;;;;;;48.40;14.45;;;;;;;;;;6215561;28;20503;-64
2023/10/29 08:59:05;;;;;;;47.13;16.00;;;;;;;;;;6221385;28;20060;-64
2023/10/29 09:02:07;;;;;;;37.30;11.68;;;;;;;;;;6227104;28;20056;-62
2023/10/29 09:05:08;;;;;;;32.45;10.93;;;;;;;;;;6265944;28;20069;-61
2023/10/29 09:08:09;;;;;;;30.27;9.73;;;;;;;;;;6250292;28;20598;-62
2023/10/29 09:11:14;;;;;;;31.13;8.85;;;;;;;;;;6270512;28;20046;-62
2023/10/29 09:14:14;;;;;;;26.08;8.32;;;;;;;;;;6265456;28;20033;-60
2023/10/29 09:17:15;;;;;;;22.92;8.95;;;;;;;;;;6268571;28;20075;-60
2023/10/29 09:20:16;;;;;;;27.27;9.88;;;;;;;;;;6254931;28;20061;-65
2023/10/29 09:23:16;;;;;;;23.42;9.85;;;;;;;;;;6270111;28;20097;-59
2023/10/29 09:26:17;;;;;;;17.83;6.82;;;;;;;;;;6268015;28;20095;-56
2023/10/29 09:29:18;;;;;;;15.68;5.60;;;;;;;;;;6269280;28;20426;-61
2023/10/29 09:32:18;;;;;;;15.93;5.90;;;;;;;;;;6270597;28;20041;-66
2023/10/29 09:35:19;;;;;;;20.17;9.27;;;;;;;;;;6269402;28;20045;-64
2023/10/29 09:38:20;;;;;;;17.55;7.97;;;;;;;;;;6268672;28;20044;-62
2023/10/29 09:41:21;;;;;;;12.05;6.05;;;;;;;;;;6269536;28;20045;-61
2023/10/29 09:44:22;;;;;;;18.52;7.68;;;;;;;;;;6265191;28;20057;-59
2023/10/29 09:47:26;;;;;;;16.38;6.03;;;;;;;;;;6259728;28;20136;-61
2023/10/29 09:50:27;;;;;;;13.30;5.90;;;;;;;;;;6268137;28;20087;-65
2023/10/29 09:53:30;;;;;;;13.55;5.95;;;;;;;;;;6269059;28;20107;-62
2023/10/29 09:56:33;;;;;;;19.25;6.95;;;;;;;;;;6264619;28;20411;-66
2023/10/29 09:59:34;;;;;;;14.70;6.63;;;;;;;;;;6268857;28;20166;-62
2023/10/29 10:02:55;;;;;;;15.20;6.03;;;;;;;;;;6269460;28;20135;-60
2023/10/29 10:05:57;;;;;;;14.88;6.47;;;;;;;;;;6262294;28;20424;-60
2023/10/29 10:08:58;;;;;;;18.20;6.78;;;;;;;;;;6264818;28;20403;-61
2023/10/29 10:12:05;;;;;;;24.05;6.78;;;;;;;;;;6261074;28;20080;-61
2023/10/29 10:15:06;;;;;;;16.58;6.38;;;;;;;;;;6254269;28;20044;-60
2023/10/29 10:18:07;;;;;;;18.77;7.07;;;;;;;;;;6265559;28;20518;-62
2023/10/29 10:21:07;;;;;;;16.50;6.43;;;;;;;;;;6258013;28;20492;-61
2023/10/29 10:24:08;;;;;;;15.38;6.05;;;;;;;;;;6269292;28;20049;-61
2023/10/29 10:27:11;;;;;;;12.65;5.63;;;;;;;;;;6268522;28;20045;-66
2023/10/29 10:30:27;;;;;;;11.77;6.35;;;;;;;;;;6267475;28;20115;-60
2023/10/29 10:33:27;;;;;;;20.73;8.77;;;;;;;;;;6261617;28;20470;-60
2023/10/29 10:36:31;;;;;;;26.75;9.52;;;;;;;;;;6268312;28;20071;-62
2023/10/29 10:39:32;;;;;;;19.77;8.30;;;;;;;;;;6267770;28;20417;-60
2023/10/29 10:42:34;;;;;;;18.85;8.05;;;;;;;;;;6268634;28;20049;-59
2023/10/29 10:45:36;;;;;;;21.85;7.60;;;;;;;;;;6268243;28;20136;-59
2023/10/29 10:48:41;;;;;;;22.30;9.80;;;;;;;;;;6268034;28;20517;-60
2023/10/29 10:51:41;;;;;;;21.38;9.43;;;;;;;;;;6267074;28;20091;-59
2023/10/29 10:54:43;;;;;;;25.37;9.47;;;;;;;;;;6268193;28;20049;-57
2023/10/29 10:57:44;;;;;;;23.70;7.63;;;;;;;;;;6267826;28;20045;-60
2023/10/29 11:00:49;;;;;;;19.27;7.75;;;;;;;;;;6266365;28;20040;-60
2023/10/29 11:03:49;;;;;;;19.52;8.07;;;;;;;;;;6267020;28;20758;-59
2023/10/29 11:06:51;;;;;;;27.65;9.10;;;;;;;;;;6254329;28;20037;-60
2023/10/29 11:09:52;;;;;;;18.15;6.72;;;;;;;;;;6266626;28;20590;-60
2023/10/29 11:12:53;;;;;;;21.92;8.52;;;;;;;;;;6264833;28;20514;-60
2023/10/29 11:15:55;;;;;;;11.45;6.03;;;;;;;;;;6267730;28;20061;-60
2023/10/29 11:18:55;;;;;;;25.95;7.85;;;;;;;;;;6267777;28;20052;-62
2023/10/29 11:22:46;;;;;;;21.50;7.55;;;;;;;;;;6266371;28;20565;-59
2023/10/29 11:25:47;;;;;;;19.15;6.75;;;;;;;;;;6238703;28;20495;-60
2023/10/29 11:28:52;;;;;;;15.25;7.60;;;;;;;;;;6263645;28;20086;-59
2023/10/29 11:32:22;;;;;;;19.58;8.75;;;;;;;;;;6263187;28;20044;-62
2023/10/29 11:35:24;;;;;;;12.05;5.30;;;;;;;;;;6249656;28;20037;-59
2023/10/29 11:38:27;;;;;;;14.48;3.90;;;;;;;;;;6260840;28;20419;-61
2023/10/29 11:41:35;;;;;;;8.50;3.13;;;;;;;;;;6266458;28;20140;-61
2023/10/29 11:44:36;;;;;;;7.97;2.80;;;;;;;;;;6256501;28;20362;-62
2023/10/29 11:48:09;;;;;;;16.48;3.50;;;;;;;;;;6240275;28;20484;-61
2023/10/29 11:51:10;;;;;;;7.20;3.17;;;;;;;;;;6240604;28;20131;-61
2023/10/29 11:54:10;;;;;;;7.78;3.40;;;;;;;;;;6241082;28;20487;-62
2023/10/29 11:57:11;;;;;;;6.78;3.03;;;;;;;;;;6238777;28;20491;-62
2023/10/29 12:00:13;;;;;;;11.70;3.05;;;;;;;;;;6238944;28;20325;-61
2023/10/29 12:03:21;;;;;;;7.82;2.85;;;;;;;;;;6239863;28;20045;-62
2023/10/29 12:06:37;;;;;;;9.00;3.10;;;;;;;;;;6240679;28;20339;-60
2023/10/29 12:09:37;;;;;;;7.63;2.72;;;;;;;;;;6239581;28;20159;-62
2023/10/29 12:12:38;;;;;;;7.55;3.13;;;;;;;;;;6240783;28;20511;-61
2023/10/29 12:15:39;;;;;;;9.27;3.10;;;;;;;;;;6243524;28;20555;-61
2023/10/29 12:18:41;;;;;;;9.23;3.10;;;;;;;;;;6240309;28;20038;-62
2023/10/29 12:21:52;;;;;;;7.82;2.80;;;;;;;;;;6238513;28;20049;-62
2023/10/29 12:24:58;;;;;;;8.20;3.00;;;;;;;;;;6239692;28;20053;-62
2023/10/29 12:27:59;;;;;;;6.95;2.78;;;;;;;;;;6243816;28;20488;-62
2023/10/29 12:31:00;;;;;;;8.50;2.85;;;;;;;;;;6252874;28;20042;-61
2023/10/29 12:34:00;;;;;;;5.70;2.53;;;;;;;;;;6247469;28;20086;-61
2023/10/29 12:37:01;;;;;;;8.53;2.70;;;;;;;;;;6246215;28;20530;-62
2023/10/29 12:40:05;;;;;;;8.93;2.90;;;;;;;;;;6246485;28;20063;-61
2023/10/29 12:43:05;;;;;;;6.70;2.95;;;;;;;;;;6247825;28;20041;-62
2023/10/29 12:46:09;;;;;;;10.20;3.03;;;;;;;;;;6246543;28;20161;-61
2023/10/29 12:49:09;;;;;;;7.50;2.90;;;;;;;;;;6244973;28;20045;-61
2023/10/29 12:52:13;;;;;;;6.60;2.67;;;;;;;;;;6247538;28;20098;-61
2023/10/29 12:55:14;;;;;;;7.97;2.97;;;;;;;;;;6245508;28;20408;-61
2023/10/29 12:58:15;;;;;;;11.00;3.53;;;;;;;;;;6259292;28;20143;-62
2023/10/29 13:01:17;;;;;;;10.65;3.10;;;;;;;;;;6246055;28;20045;-61
2023/10/29 13:04:19;;;;;;;7.32;2.97;;;;;;;;;;6244740;28;20079;-60
2023/10/29 13:07:20;;;;;;;10.23;3.13;;;;;;;;;;6245274;28;20037;-61
2023/10/29 13:10:21;;;;;;;9.90;3.40;;;;;;;;;;6245363;28;20049;-61
2023/10/29 13:13:23;;;;;;;10.20;3.33;;;;;;;;;;6245430;28;20060;-60
2023/10/29 13:16:23;;;;;;;9.48;3.65;;;;;;;;;;6246257;28;20483;-62
2023/10/29 13:19:24;;;;;;;11.95;4.70;;;;;;;;;;6243491;28;20057;-61
2023/10/29 13:22:25;;;;;;;9.60;3.97;;;;;;;;;;6247453;28;20091;-61
2023/10/29 13:25:26;;;;;;;10.60;3.88;;;;;;;;;;6246088;28;20049;-61
2023/10/29 13:28:26;;;;;;;10.73;3.50;;;;;;;;;;6246435;28;20462;-61
2023/10/29 13:31:27;;;;;;;8.98;4.82;;;;;;;;;;6244983;28;20519;-61
2023/10/29 13:34:28;;;;;;;12.30;4.35;;;;;;;;;;6245014;28;20073;-61
2023/10/29 13:37:28;;;;;;;10.90;3.70;;;;;;;;;;6246432;28;20053;-61
2023/10/29 13:40:29;;;;;;;13.60;4.55;;;;;;;;;;6244988;28;20475;-61
2023/10/29 13:43:30;;;;;;;13.02;3.92;;;;;;;;;;6245801;28;20052;-61
2023/10/29 13:46:31;;;;;;;11.40;4.30;;;;;;;;;;6246106;28;20056;-61
2023/10/29 13:49:31;;;;;;;14.95;4.22;;;;;;;;;;6242612;28;20499;-61
2023/10/29 13:52:32;;;;;;;13.00;4.75;;;;;;;;;;6245269;28;20533;-61
2023/10/29 13:55:33;;;;;;;11.75;3.97;;;;;;;;;;6246092;28;20048;-61
2023/10/29 13:58:34;;;;;;;12.52;3.97;;;;;;;;;;6244156;28;20376;-62
2023/10/29 14:01:35;;;;;;;9.03;4.00;;;;;;;;;;6245456;28;20132;-61
2023/10/29 14:04:35;;;;;;;9.07;4.18;;;;;;;;;;6245364;28;20065;-62
2023/10/29 14:07:36;;;;;;;12.20;4.30;;;;;;;;;;6245210;28;20049;-61
2023/10/29 14:10:37;;;;;;;11.00;4.32;;;;;;;;;;6241966;28;20065;-61
2023/10/29 14:13:38;;;;;;;11.10;4.18;;;;;;;;;;6243183;28;20046;-60
2023/10/29 14:16:40;;;;;;;11.73;4.50;;;;;;;;;;6244147;28;20049;-61
2023/10/29 14:19:40;;;;;;;;;;;;;;;;;;6244038;28;20079;-62
2023/10/29 14:22:41;;;;;;;11.40;5.22;;;;;;;;;;6242101;28;19968;-59
2023/10/29 14:25:42;;;;;;;12.65;4.50;;;;;;;;;;6246038;28;20507;-60
2023/10/29 14:28:42;;;;;;;14.40;5.22;;;;;;;;;;6244511;28;20450;-62
2023/10/29 14:31:43;;;;;;;18.80;5.50;;;;;;;;;;6244759;28;20049;-61
2023/10/29 14:34:44;;;;;;;12.63;5.93;;;;;;;;;;6243921;28;20140;-61
2023/10/29 14:37:44;;;;;;;17.40;7.18;;;;;;;;;;6244869;28;20083;-62
2023/10/29 14:40:45;;;;;;;18.65;6.28;;;;;;;;;;6243843;28;20084;-61
2023/10/29 14:43:46;;;;;;;18.88;8.55;;;;;;;;;;6242643;28;20489;-61
2023/10/29 14:46:46;;;;;;;15.38;6.50;;;;;;;;;;6245181;28;20060;-61
2023/10/29 14:49:48;;;;;;;16.92;6.35;;;;;;;;;;6243816;28;20048;-61
2023/10/29 14:52:48;;;;;;;15.55;7.03;;;;;;;;;;6244083;28;20052;-61
2023/10/29 14:55:49;;;;;;;11.23;5.57;;;;;;;;;;6241911;28;20037;-60
2023/10/29 14:58:50;;;;;;;14.07;5.30;;;;;;;;;;6243753;28;20055;-61
2023/10/29 15:01:53;;;;;;;17.83;5.78;;;;;;;;;;6243349;28;20045;-60
2023/10/29 15:04:55;;;;;;;14.05;5.55;;;;;;;;;;6244455;28;20060;-60
2023/10/29 15:07:55;;;;;;;14.60;5.10;;;;;;;;;;6249353;28;20053;-60
2023/10/29 15:10:57;;;;;;;17.25;5.63;;;;;;;;;;6246726;28;20179;-58
2023/10/29 15:13:57;;;;;;;14.63;5.70;;;;;;;;;;6252517;28;20103;-60
2023/10/29 15:16:58;;;;;;;14.40;5.40;;;;;;;;;;6257058;28;20040;-61
2023/10/29 15:19:59;;;;;;;15.02;5.18;;;;;;;;;;6251276;28;20110;-62
2023/10/29 15:23:00;;;;;;;12.85;6.00;;;;;;;;;;6257835;28;20080;-60
2023/10/29 15:26:01;;;;;;;13.50;6.03;;;;;;;;;;6256703;28;20518;-61
2023/10/29 15:29:02;;;;;;;15.02;6.65;;;;;;;;;;6254436;28;20069;-59
2023/10/29 15:32:03;;;;;;;15.73;5.95;;;;;;;;;;6256733;28;20055;-60
2023/10/29 15:35:04;;;;;;;15.68;5.35;;;;;;;;;;6258250;28;20048;-60
2023/10/29 15:38:05;;;;;;;14.67;6.37;;;;;;;;;;6252407;28;20049;-62
2023/10/29 15:41:06;;;;;;;14.65;5.95;;;;;;;;;;6249459;28;20495;-62
2023/10/29 15:44:07;;;;;;;13.97;5.53;;;;;;;;;;6253980;28;20048;-61
2023/10/29 15:47:08;;;;;;;20.17;5.68;;;;;;;;;;6254664;28;20814;-61
2023/10/29 15:50:08;;;;;;;34.88;7.38;;;;;;;;;;6250353;28;20087;-60
2023/10/29 15:53:09;;;;;;;17.38;5.60;;;;;;;;;;6254627;28;20488;-60
2023/10/29 15:56:10;;;;;;;18.70;6.35;;;;;;;;;;6253541;28;20675;-59
2023/10/29 15:59:10;;;;;;;19.02;5.55;;;;;;;;;;6251408;28;20045;-63
2023/10/29 16:02:11;;;;;;;14.75;6.15;;;;;;;;;;6253557;28;20092;-62
2023/10/29 16:05:12;;;;;;;19.65;5.90;;;;;;;;;;6254603;28;20053;-61
2023/10/29 16:08:12;;;;;;;20.95;5.95;;;;;;;;;;6254247;28;20458;-62
2023/10/29 16:11:26;;;;;;;22.73;7.03;;;;;;;;;;6250869;28;20102;-60
2023/10/29 16:14:26;;;;;;;25.40;7.40;;;;;;;;;;6254819;28;20088;-60
2023/10/29 16:17:28;;;;;;;28.77;7.30;;;;;;;;;;6254209;28;20332;-61
2023/10/29 16:20:29;;;;;;;24.38;6.85;;;;;;;;;;6250318;28;20097;-61
2023/10/29 16:23:30;;;;;;;17.05;6.18;;;;;;;;;;6255046;28;20060;-61
2023/10/29 16:26:30;;;;;;;19.50;6.32;;;;;;;;;;6255003;28;20056;-61
2023/10/29 16:29:31;;;;;;;25.73;7.32;;;;;;;;;;6251044;28;20751;-61
2023/10/29 16:32:32;;;;;;;17.27;6.15;;;;;;;;;;6252903;28;20049;-59
2023/10/29 16:35:33;;;;;;;19.40;7.90;;;;;;;;;;6254486;28;20045;-60
2023/10/29 16:38:34;;;;;;;16.48;6.63;;;;;;;;;;6253392;28;20310;-60
2023/10/29 16:41:35;;;;;;;29.92;11.85;;;;;;;;;;6251601;28;20049;-58
2023/10/29 16:44:36;;;;;;;57.03;18.40;;;;;;;;;;6253127;28;20098;-58
2023/10/29 16:47:36;;;;;;;44.13;16.80;;;;;;;;;;6253713;28;20053;-60
2023/10/29 16:50:38;;;;;;;77.20;28.85;;;;;;;;;;6250462;28;20049;-59
2023/10/29 16:53:39;;;;;;;;;;;;;;;;;;6254233;28;20061;-60
2023/10/29 16:56:39;;;;;;;25.02;9.10;;;;;;;;;;6255528;28;19936;-60
2023/10/29 16:59:40;;;;;;;21.88;8.68;;;;;;;;;;6248795;28;20132;-60
2023/10/29 17:02:40;;;;;;;19.80;7.78;;;;;;;;;;6251215;28;20060;-60
2023/10/29 17:05:41;;;;;;;20.27;8.27;;;;;;;;;;6249753;28;20067;-60
2023/10/29 17:08:41;;;;;;;21.90;10.57;;;;;;;;;;6253936;28;20123;-59
2023/10/29 17:11:42;;;;;;;18.27;8.40;;;;;;;;;;6249973;28;20085;-59
2023/10/29 17:14:43;;;;;;;22.23;11.77;;;;;;;;;;6253245;28;20053;-60
2023/10/29 17:17:43;;;;;;;23.05;10.20;;;;;;;;;;6254146;28;20095;-59
2023/10/29 17:20:44;;;;;;;19.35;8.73;;;;;;;;;;6253830;28;20529;-59
2023/10/29 17:23:46;;;;;;;17.50;7.77;;;;;;;;;;6257009;28;20059;-60
2023/10/29 17:26:47;;;;;;;20.50;7.45;;;;;;;;;;6256634;28;20159;-59
2023/10/29 17:29:49;;;;;;;21.50;7.10;;;;;;;;;;6255180;28;20056;-59
2023/10/29 17:32:57;;;;;;;19.30;7.78;;;;;;;;;;6255198;28;20499;-59
2023/10/29 17:35:57;;;;;;;24.50;10.05;;;;;;;;;;6257931;28;20069;-59
2023/10/29 17:38:58;;;;;;;26.80;10.40;;;;;;;;;;6256229;28;20490;-60
2023/10/29 17:41:58;;;;;;;27.02;9.90;;;;;;;;;;6255717;28;20045;-60
2023/10/29 17:44:59;;;;;;;21.80;9.77;;;;;;;;;;6258413;28;20419;-60
2023/10/29 17:48:01;;;;;;;28.17;11.02;;;;;;;;;;6257915;28;20122;-60